map of ZVK home
ZVK - Airport
Location
City:  Savannakhét, Lao People's Democratic Republic (Laos)
ICAO:VLSK
IATA:ZVK

Details
Type:Airport (Aerodrome, Airfield)
Latitude:16°33'24"N (16.556594)
Longitude:104°45'34"E (104.759531)
Datum:WGS 1984
Elevation:509 ft (155 m)
Variation:0.96°W (WMM2015 magnetic declination)
-0.02° annual change
Runways:1
Longest:5358 × 125 ft (1633 × 38 m), paved

Time
Time Zone:UTC+7
Local Time:

Weather
METAR:VLSK 191300Z 02002KT 5000 BR SCT040 26/19 Q1015 NOSIG
TAF:VLSK 191100Z 1912/2012 09004KT 8000 SCT020 FEW100
TEMPO 1914/1920 3000 BR FEW040 FEW100

Related Locations
Nearby:
Farthest:SPYU: 12355 mi / 19884 km
Yauca, ARE, PE

Find:

   beyond  
but within

Other Information
Maps:
NOTAMs:
Links:
Sources:

  
  • flag of Lao People's Democratic Republic (Laos)
  

Sectional Chart

Flight Planning
at skyvector.com

Satellite Image

Google Maps Satellite view

 

Copyright © 2004-2018 Karl L. Swartz. All rights reserved.
The Great Circle Mapper name and logo are trademarks of the Great Circle Mapper.
All other trademarks mentioned herein belong to their respective owners.
Please see credits for attibutions and further copyright information.

  Follow gcmap on Facebook Follow gcmap on Twitter Follow gcmap on Google+ GCmap on LinkedIn

hCard Microformat

Geo Microformat